createdAt,value
2022-09-26T00:00:47.086Z,99751.97
2022-09-26T00:03:15.002Z,99754.97
2022-09-26T00:05:42.677Z,99743.69
2022-09-26T00:08:10.409Z,99742.97
2022-09-26T00:10:39.420Z,99742.22
2022-09-26T00:13:07.635Z,99732.44
2022-09-26T00:15:35.334Z,99721.91
2022-09-26T00:18:03.016Z,99724.56
2022-09-26T00:20:30.677Z,99727.34
2022-09-26T00:22:58.378Z,99722.25
2022-09-26T00:25:27.003Z,99715.84
2022-09-26T00:27:56.038Z,99709.66
2022-09-26T00:30:23.752Z,99703.84
2022-09-26T00:32:52.151Z,99709.78
2022-09-26T00:35:20.011Z,99705.44
2022-09-26T00:37:47.703Z,99705.44
2022-09-26T00:40:16.324Z,99700.09
2022-09-26T00:42:44.038Z,99694.78
2022-09-26T00:45:13.460Z,99687.78
2022-09-26T00:47:43.735Z,99685.94
2022-09-26T00:50:18.299Z,99681.59
2022-09-26T00:52:47.961Z,99669.19
2022-09-26T00:55:16.251Z,99678.19
2022-09-26T00:57:46.415Z,99678.41
2022-09-26T01:00:15.999Z,99677.69
2022-09-26T01:02:44.135Z,99677.69
2022-09-26T01:05:12.547Z,99649.56
2022-09-26T01:07:40.229Z,99663.41
2022-09-26T01:10:08.590Z,99664.28
2022-09-26T01:12:36.556Z,99662.44
2022-09-26T01:15:05.203Z,99650.88
2022-09-26T01:17:34.223Z,99581.88
2022-09-26T01:20:08.868Z,99636.25
2022-09-26T01:23:21.381Z,99640.72
2022-09-26T01:26:22.679Z,99634.06
2022-09-26T01:29:05.009Z,99632.38
2022-09-26T01:31:36.524Z,99585.88
2022-09-26T01:34:05.340Z,99626.75
2022-09-26T01:36:46.060Z,99625.66
2022-09-26T01:39:27.723Z,99630.53
2022-09-26T01:41:59.046Z,99631.38
2022-09-26T01:44:31.568Z,99628.94
2022-09-26T01:47:02.188Z,99617.69
2022-09-26T01:49:32.794Z,99600.72
2022-09-26T01:52:02.006Z,99620.97
2022-09-26T01:54:31.743Z,99631.63
2022-09-26T01:56:59.418Z,99469.38
2022-09-26T01:59:28.468Z,99615.47
2022-09-26T02:01:58.278Z,99593.28
2022-09-26T02:04:29.099Z,99607.59
2022-09-26T02:06:58.216Z,99596.25
2022-09-26T02:09:27.655Z,99596.38
2022-09-26T02:11:55.320Z,99579.59
2022-09-26T02:14:25.016Z,99554.84
2022-09-26T02:16:53.963Z,99593.06
2022-09-26T02:19:24.144Z,99586.06
2022-09-26T02:21:52.958Z,99581.69
2022-09-26T02:24:20.656Z,99588.19
2022-09-26T02:26:48.309Z,99580.00
2022-09-26T02:29:16.022Z,99515.97
2022-09-26T02:31:46.081Z,99569.38
2022-09-26T02:34:13.635Z,99567.69
2022-09-26T02:36:41.362Z,99562.47
2022-09-26T02:39:12.293Z,99564.28
2022-09-26T02:41:44.352Z,99512.47
2022-09-26T02:44:18.640Z,99552.19
2022-09-26T02:47:06.352Z,99552.78
2022-09-26T02:49:45.160Z,99549.53
2022-09-26T02:52:22.792Z,99486.13
2022-09-26T02:54:55.381Z,99537.91
2022-09-26T02:57:27.713Z,99532.59
2022-09-26T02:59:59.747Z,99530.91
2022-09-26T03:02:30.666Z,99524.72
2022-09-26T03:05:01.497Z,99520.28
2022-09-26T03:07:31.088Z,99516.88
2022-09-26T03:10:00.631Z,99506.97
2022-09-26T03:12:28.440Z,99511.44
2022-09-26T03:14:58.701Z,99491.78
2022-09-26T03:17:29.114Z,99500.81
2022-09-26T03:19:58.015Z,99491.38
2022-09-26T03:22:26.038Z,99471.34
2022-09-26T03:24:54.087Z,99483.41
2022-09-26T03:27:23.498Z,99435.75
2022-09-26T03:29:51.199Z,99422.53
2022-09-26T03:32:18.854Z,99465.44
2022-09-26T03:34:46.559Z,99463.59
2022-09-26T03:37:16.496Z,99341.66
2022-09-26T03:39:44.549Z,99463.59
2022-09-26T03:42:14.190Z,99459.16
2022-09-26T03:44:44.112Z,99448.41
2022-09-26T03:47:11.803Z,99451.19
2022-09-26T03:49:39.886Z,99443.31
2022-09-26T03:52:07.682Z,99451.19
2022-09-26T03:54:35.382Z,99438.75
2022-09-26T03:57:03.047Z,99445.00
2022-09-26T03:59:30.736Z,99438.97
2022-09-26T04:01:59.757Z,99430.03
2022-09-26T04:04:27.685Z,99421.81
2022-09-26T04:06:55.345Z,99345.31
2022-09-26T04:09:23.581Z,99415.75
2022-09-26T04:11:51.293Z,99418.66
2022-09-26T04:14:19.914Z,99402.69
2022-09-26T04:16:47.934Z,99399.34
2022-09-26T04:19:17.061Z,99403.69
2022-09-26T04:21:45.128Z,99400.28
2022-09-26T04:24:14.404Z,99401.13
2022-09-26T04:26:42.133Z,99392.06
2022-09-26T04:29:10.047Z,99342.31
2022-09-26T04:31:37.944Z,99248.28
2022-09-26T04:34:05.695Z,99368.84
2022-09-26T04:36:34.709Z,99375.66
2022-09-26T04:39:02.628Z,99366.94
2022-09-26T04:41:30.516Z,99359.59
2022-09-26T04:43:58.601Z,99363.06
2022-09-26T04:46:30.694Z,99302.81
2022-09-26T04:48:59.660Z,99351.72
2022-09-26T04:51:27.583Z,99351.97
2022-09-26T04:53:56.747Z,99348.44
2022-09-26T04:56:25.463Z,99344.81
2022-09-26T04:58:54.685Z,99336.00
2022-09-26T05:01:22.717Z,99341.34
2022-09-26T05:03:50.436Z,99337.94
2022-09-26T05:06:18.877Z,99330.94
2022-09-26T05:08:47.632Z,99278.16
2022-09-26T05:11:17.276Z,99331.75
2022-09-26T05:13:45.160Z,99323.91
2022-09-26T05:16:14.556Z,99323.78
2022-09-26T05:18:42.498Z,99322.97
2022-09-26T05:21:10.165Z,99317.75
2022-09-26T05:23:55.751Z,99314.13
2022-09-26T05:26:26.070Z,99311.47
2022-09-26T05:28:55.286Z,99304.25
2022-09-26T05:31:25.303Z,99240.00
2022-09-26T05:33:54.819Z,99304.34
2022-09-26T05:36:22.523Z,99305.31
2022-09-26T05:38:50.234Z,99304.34
2022-09-26T05:41:17.141Z,99297.22
2022-09-26T05:43:47.065Z,99297.84
2022-09-26T05:46:14.975Z,99230.38
2022-09-26T05:48:42.783Z,99290.84
2022-09-26T05:51:11.845Z,99183.63
2022-09-26T05:53:39.586Z,99289.47
2022-09-26T05:56:07.569Z,99277.91
2022-09-26T05:58:36.639Z,99289.41
2022-09-26T06:01:07.372Z,99279.97
2022-09-26T06:03:35.615Z,99256.38
2022-09-26T06:06:04.718Z,99280.44
2022-09-26T06:08:32.610Z,99275.88
2022-09-26T06:11:01.450Z,99276.59
2022-09-26T06:13:29.149Z,99271.16
2022-09-26T06:15:57.413Z,99265.00
2022-09-26T06:18:26.454Z,99270.31
2022-09-26T06:20:54.103Z,99267.66
2022-09-26T06:23:22.220Z,99259.91
2022-09-26T06:25:50.244Z,99262.69
2022-09-26T06:28:18.494Z,99257.00
2022-09-26T06:30:46.169Z,99267.03
2022-09-26T06:33:13.932Z,99256.88
2022-09-26T06:35:42.966Z,99252.19
2022-09-26T06:38:10.620Z,99251.84
2022-09-26T06:40:38.790Z,99258.81
2022-09-26T06:43:06.531Z,99246.16
2022-09-26T06:45:34.730Z,99247.16
2022-09-26T06:48:03.243Z,99256.72
2022-09-26T06:50:30.932Z,99231.19
2022-09-26T06:53:09.094Z,99244.25
2022-09-26T06:55:36.808Z,99245.69
2022-09-26T06:58:04.484Z,99241.97
2022-09-26T07:00:35.472Z,99240.75
2022-09-26T07:03:03.249Z,99232.66
2022-09-26T07:05:30.956Z,99233.03
2022-09-26T07:07:59.952Z,99227.09
2022-09-26T07:10:28.122Z,99216.69
2022-09-26T07:12:59.804Z,99220.78
2022-09-26T07:15:30.837Z,99216.44
2022-09-26T07:18:02.219Z,99220.78
2022-09-26T07:20:30.506Z,99215.22
2022-09-26T07:22:58.174Z,99203.84
2022-09-26T07:25:27.281Z,99199.88
2022-09-26T07:27:54.956Z,99207.97
2022-09-26T07:30:23.412Z,99199.88
2022-09-26T07:32:51.095Z,99188.38
2022-09-26T07:35:18.964Z,99144.78
2022-09-26T07:37:46.700Z,99188.13
2022-09-26T07:40:14.469Z,99180.88
2022-09-26T07:42:54.401Z,99178.78
2022-09-26T07:45:49.925Z,99171.41
2022-09-26T07:48:35.141Z,99172.13
2022-09-26T07:51:08.438Z,99174.41
2022-09-26T07:53:38.715Z,99121.19
2022-09-26T07:56:06.768Z,99167.84
2022-09-26T07:58:36.091Z,99168.72
2022-09-26T08:01:03.850Z,99165.94
2022-09-26T08:03:31.535Z,99161.19
2022-09-26T08:06:00.808Z,99169.88
2022-09-26T08:08:29.425Z,99163.72
2022-09-26T08:11:02.785Z,99155.59
2022-09-26T08:13:32.130Z,99153.91
2022-09-26T08:16:04.901Z,99154.91
2022-09-26T08:18:33.566Z,99151.25
2022-09-26T08:21:03.515Z,99106.63
2022-09-26T08:23:31.164Z,99146.19
2022-09-26T08:25:59.127Z,99147.75
2022-09-26T08:28:27.403Z,99152.00
2022-09-26T08:30:55.170Z,99152.00
2022-09-26T08:33:25.126Z,99152.69
2022-09-26T08:35:52.840Z,99141.22
2022-09-26T08:38:20.517Z,99135.63
2022-09-26T08:40:53.141Z,99089.91
2022-09-26T08:46:01.622Z,99111.59
2022-09-26T08:48:39.198Z,99134.50
2022-09-26T08:51:12.119Z,99125.88
2022-09-26T08:53:42.959Z,99115.47
2022-09-26T08:56:15.273Z,99117.75
2022-09-26T08:58:44.203Z,99107.22
2022-09-26T09:01:13.402Z,99108.19
2022-09-26T09:03:46.888Z,99042.44
2022-09-26T09:06:14.900Z,99102.84
2022-09-26T09:08:44.130Z,99094.44
2022-09-26T09:11:18.484Z,99096.38
2022-09-26T09:13:53.714Z,99100.16
2022-09-26T09:16:28.694Z,99052.69
2022-09-26T09:18:59.883Z,99092.41
2022-09-26T09:21:36.829Z,99055.94
2022-09-26T09:24:17.024Z,99090.69
2022-09-26T09:29:54.273Z,99087.91
2022-09-26T09:32:22.818Z,99086.84
2022-09-26T09:34:53.951Z,99087.16
2022-09-26T09:37:22.577Z,99094.47
2022-09-26T09:39:50.655Z,99087.75
2022-09-26T09:42:21.749Z,99084.34
2022-09-26T09:44:51.673Z,99075.00
2022-09-26T09:47:19.687Z,99080.78
2022-09-26T09:49:48.402Z,99071.03
2022-09-26T09:52:29.181Z,99080.22
2022-09-26T09:55:03.244Z,99026.88
2022-09-26T09:57:39.676Z,99069.59
2022-09-26T10:00:13.013Z,99071.03
2022-09-26T10:02:44.001Z,99068.94
2022-09-26T10:05:18.665Z,99068.66
2022-09-26T10:07:48.463Z,99069.97
2022-09-26T10:10:19.510Z,99060.88
2022-09-26T10:12:47.495Z,99060.88
2022-09-26T10:15:19.716Z,99015.44
2022-09-26T10:18:23.493Z,99057.41
2022-09-26T10:20:54.192Z,99058.22
2022-09-26T10:23:28.913Z,99043.94
2022-09-26T10:26:00.559Z,99052.06
2022-09-26T10:28:33.446Z,99045.34
2022-09-26T10:31:04.540Z,98979.97
2022-09-26T10:33:34.408Z,99035.09
2022-09-26T10:36:08.961Z,98992.81
2022-09-26T10:39:10.199Z,99036.38
2022-09-26T10:41:39.546Z,98970.75
2022-09-26T10:44:08.733Z,99028.81
2022-09-26T10:46:36.578Z,99040.75
2022-09-26T10:49:04.299Z,98985.81
2022-09-26T10:51:33.700Z,98997.19
2022-09-26T10:54:04.994Z,99022.38
2022-09-26T10:56:34.580Z,99001.84
2022-09-26T10:59:04.332Z,98992.88
2022-09-26T11:01:32.167Z,98951.72
2022-09-26T11:04:01.627Z,99025.75
2022-09-26T11:06:31.976Z,98982.63
2022-09-26T11:09:03.356Z,99019.56
2022-09-26T11:11:34.834Z,98954.25
2022-09-26T11:14:05.005Z,99015.94
2022-09-26T11:16:38.282Z,99006.38
2022-09-26T11:19:09.614Z,98999.94
2022-09-26T11:21:41.277Z,99002.47
2022-09-26T11:24:13.273Z,98816.78
2022-09-26T11:26:45.055Z,98989.03
2022-09-26T11:29:16.600Z,98993.50
2022-09-26T11:31:44.558Z,98983.41
2022-09-26T11:34:14.053Z,98954.03
2022-09-26T11:36:50.069Z,98941.78
2022-09-26T11:39:26.201Z,98988.16
2022-09-26T11:42:03.949Z,98984.78
2022-09-26T11:44:38.475Z,98969.34
2022-09-26T11:47:38.481Z,98976.38
2022-09-26T11:50:35.567Z,98975.66
2022-09-26T11:53:12.303Z,98960.75
2022-09-26T11:55:48.789Z,98975.94
2022-09-26T11:58:19.963Z,98968.78
2022-09-26T12:00:52.166Z,98973.00
2022-09-26T12:03:30.582Z,98966.41
2022-09-26T12:06:01.230Z,98959.94
2022-09-26T12:08:36.716Z,98945.50
2022-09-26T12:11:09.886Z,98952.94
2022-09-26T12:13:43.187Z,98878.81
2022-09-26T12:16:14.554Z,98899.91
2022-09-26T12:18:48.531Z,98932.31
2022-09-26T12:21:24.708Z,98934.16
2022-09-26T12:23:53.991Z,98869.44
2022-09-26T12:26:23.552Z,98917.88
2022-09-26T12:29:03.324Z,98906.50
2022-09-26T12:31:40.317Z,98898.38
2022-09-26T12:34:18.086Z,98897.94
2022-09-26T12:36:53.237Z,98899.38
2022-09-26T12:39:31.964Z,98894.31
2022-09-26T12:42:13.362Z,98892.47
2022-09-26T12:44:50.933Z,98872.56
2022-09-26T12:47:55.124Z,98888.13
2022-09-26T12:50:31.105Z,98877.06
2022-09-26T12:53:28.554Z,98874.38
2022-09-26T12:56:03.408Z,98868.63
2022-09-26T12:58:39.055Z,98868.75
2022-09-26T13:01:15.895Z,98871.44
2022-09-26T13:03:56.717Z,98820.09
2022-09-26T13:06:32.496Z,98740.66
2022-09-26T13:09:04.332Z,98830.59
2022-09-26T13:11:37.339Z,98820.66
2022-09-26T13:14:14.983Z,98849.41
2022-09-26T13:16:56.145Z,98852.94
2022-09-26T13:19:26.801Z,98847.59
2022-09-26T13:21:58.634Z,98844.09
2022-09-26T13:24:32.894Z,98757.81
2022-09-26T13:27:05.696Z,98821.50
2022-09-26T13:29:37.348Z,98822.09
2022-09-26T13:32:12.693Z,98827.41
2022-09-26T13:34:41.560Z,98780.53
2022-09-26T13:37:11.891Z,98781.53
2022-09-26T13:39:42.248Z,98825.72
2022-09-26T13:42:11.183Z,98827.69
2022-09-26T13:44:53.209Z,98830.22
2022-09-26T13:47:27.454Z,98764.84
2022-09-26T13:49:59.508Z,98815.91
2022-09-26T13:52:35.033Z,98817.84
2022-09-26T13:55:04.095Z,98768.50
2022-09-26T13:57:38.956Z,98809.72
2022-09-26T14:00:24.095Z,98819.56
2022-09-26T14:03:22.976Z,98806.38
2022-09-26T14:05:52.487Z,98802.28
2022-09-26T14:08:48.676Z,98740.34
2022-09-26T14:11:24.510Z,98764.00
2022-09-26T14:14:22.389Z,98779.19
2022-09-26T14:16:50.419Z,98774.69
2022-09-26T14:19:19.662Z,98771.03
2022-09-26T14:22:00.660Z,98772.72
2022-09-26T14:24:47.011Z,98764.59
2022-09-26T14:27:44.262Z,98757.44
2022-09-26T14:30:26.523Z,98748.59
2022-09-26T14:32:59.196Z,98749.44
2022-09-26T14:35:27.828Z,98677.38
2022-09-26T14:38:00.797Z,98739.94
2022-09-26T14:40:30.341Z,98688.91
2022-09-26T14:43:00.337Z,98697.28
2022-09-26T14:45:30.071Z,98671.53
2022-09-26T14:48:09.852Z,98736.41
2022-09-26T14:50:44.306Z,98661.03
2022-09-26T14:53:20.428Z,98731.94
2022-09-26T14:55:54.322Z,98719.88
2022-09-26T14:58:31.149Z,98717.34
2022-09-26T15:01:02.591Z,98708.78
2022-09-26T15:03:30.267Z,98707.13
2022-09-26T15:05:58.100Z,98717.75
2022-09-26T15:08:28.284Z,98713.81
2022-09-26T15:10:56.901Z,98703.59
2022-09-26T15:13:29.667Z,98700.41
2022-09-26T15:16:01.190Z,98668.00
2022-09-26T15:18:35.656Z,98647.28
2022-09-26T15:21:06.982Z,98690.28
2022-09-26T15:23:35.994Z,98681.31
2022-09-26T15:26:03.670Z,98690.00
2022-09-26T15:28:34.489Z,98689.84
2022-09-26T15:31:24.572Z,98683.28
2022-09-26T15:33:52.516Z,98677.97
2022-09-26T15:36:20.261Z,98677.25
2022-09-26T15:38:49.767Z,98675.28
2022-09-26T15:41:38.358Z,98574.56
2022-09-26T15:44:08.775Z,98560.16
2022-09-26T15:46:36.563Z,98661.69
2022-09-26T15:49:06.079Z,98656.38
2022-09-26T15:51:37.610Z,98643.22
2022-09-26T15:54:07.894Z,98660.16
2022-09-26T15:56:36.729Z,98653.84
2022-09-26T15:59:08.875Z,98661.16
2022-09-26T16:01:40.889Z,98667.44
2022-09-26T16:04:14.886Z,98596.41
2022-09-26T16:06:42.980Z,98657.78
2022-09-26T16:09:19.569Z,98654.97
2022-09-26T16:11:50.117Z,98647.13
2022-09-26T16:14:25.722Z,98643.47
2022-09-26T16:16:54.787Z,98580.84
2022-09-26T16:19:34.116Z,98637.31
2022-09-26T16:22:23.563Z,98634.81
2022-09-26T16:24:52.567Z,98632.28
2022-09-26T16:27:24.749Z,98625.25
2022-09-26T16:29:52.510Z,98548.66
2022-09-26T16:32:21.006Z,98630.59
2022-09-26T16:34:48.842Z,98628.91
2022-09-26T16:37:19.646Z,98633.25
2022-09-26T16:39:56.204Z,98628.06
2022-09-26T16:42:25.092Z,98540.69
2022-09-26T16:44:54.794Z,98614.22
2022-09-26T16:47:33.603Z,98616.88
2022-09-26T16:50:19.643Z,98619.53
2022-09-26T16:52:47.299Z,98613.50
2022-09-26T16:55:16.507Z,98611.69
2022-09-26T16:57:50.420Z,98536.19
2022-09-26T17:00:36.928Z,98602.56
2022-09-26T17:03:04.922Z,98608.19
2022-09-26T17:05:32.660Z,98603.84
2022-09-26T17:08:00.357Z,98602.16
2022-09-26T17:10:29.404Z,98594.16
2022-09-26T17:13:02.511Z,98595.16
2022-09-26T17:15:30.278Z,98597.53
2022-09-26T17:17:58.327Z,98533.66
2022-09-26T17:20:26.786Z,98593.50
2022-09-26T17:22:54.800Z,98587.31
2022-09-26T17:25:24.920Z,98600.47
2022-09-26T17:27:54.256Z,98584.78
2022-09-26T17:30:21.961Z,98590.13
2022-09-26T17:32:51.019Z,98593.78
2022-09-26T17:35:22.866Z,98584.78
2022-09-26T17:37:51.306Z,98583.94
2022-09-26T17:40:24.212Z,98581.41
2022-09-26T17:42:52.617Z,98586.75
2022-09-26T17:45:21.711Z,98579.03
2022-09-26T17:47:49.399Z,98575.41
2022-09-26T17:50:22.887Z,98578.22
2022-09-26T17:52:50.555Z,98577.38
2022-09-26T17:55:18.852Z,98573.44
2022-09-26T17:57:46.661Z,98566.72
2022-09-26T18:00:18.034Z,98565.88
2022-09-26T18:02:47.655Z,98560.69
2022-09-26T18:05:18.972Z,98558.03
2022-09-26T18:07:47.182Z,98560.84
2022-09-26T18:10:19.303Z,98560.84
2022-09-26T18:12:47.087Z,98555.63
2022-09-26T18:15:16.714Z,98558.28
2022-09-26T18:17:44.463Z,98551.28
2022-09-26T18:20:13.470Z,98543.16
2022-09-26T18:22:41.163Z,98535.31
2022-09-26T18:25:09.464Z,98541.50
2022-09-26T18:27:39.670Z,98533.94
2022-09-26T18:30:08.445Z,98531.94
2022-09-26T18:32:39.092Z,98525.38
2022-09-26T18:35:08.380Z,98540.94
2022-09-26T18:37:37.421Z,98534.75
2022-09-26T18:40:05.787Z,98534.75
2022-09-26T18:42:33.486Z,98534.06
2022-09-26T18:45:02.485Z,98532.38
2022-09-26T18:47:30.223Z,98526.25
2022-09-26T18:49:57.912Z,98531.28
2022-09-26T18:52:25.904Z,98528.91
2022-09-26T18:55:08.828Z,98526.25
2022-09-26T18:57:54.105Z,98520.91
2022-09-26T19:00:21.756Z,98509.56
2022-09-26T19:02:50.171Z,98522.88
2022-09-26T19:05:17.953Z,98513.22
2022-09-26T19:07:45.686Z,98508.84
2022-09-26T19:10:17.189Z,98425.34
2022-09-26T19:12:44.927Z,98498.22
2022-09-26T19:15:16.276Z,98494.72
2022-09-26T19:17:44.344Z,98493.88
2022-09-26T19:20:11.989Z,98493.88
2022-09-26T19:22:39.715Z,98408.28
2022-09-26T19:25:08.076Z,98487.72
2022-09-26T19:27:40.735Z,98401.16
2022-09-26T19:30:12.403Z,98481.84
2022-09-26T19:32:41.296Z,98479.19
2022-09-26T19:35:12.992Z,98468.25
2022-09-26T19:37:40.651Z,98464.03
2022-09-26T19:40:13.361Z,98458.88
2022-09-26T19:42:42.789Z,98458.88
2022-09-26T19:45:11.308Z,98457.19
2022-09-26T19:47:39.383Z,98454.69
2022-09-26T19:50:10.512Z,98453.69
2022-09-26T19:52:38.203Z,98452.88
2022-09-26T19:55:12.283Z,98450.22
2022-09-26T19:57:39.961Z,98445.19
2022-09-26T20:00:11.265Z,98453.84
2022-09-26T20:02:39.445Z,98447.69
2022-09-26T20:05:14.105Z,98440.53
2022-09-26T20:07:41.786Z,98438.84
2022-09-26T20:10:15.648Z,98436.19
2022-09-26T20:12:43.384Z,98430.16
2022-09-26T20:15:13.584Z,98422.47
2022-09-26T20:17:41.445Z,98421.50
2022-09-26T20:20:11.396Z,98424.84
2022-09-26T20:22:39.601Z,98414.22
2022-09-26T20:25:07.371Z,98417.56
2022-09-26T20:27:35.048Z,98416.06
2022-09-26T20:30:20.468Z,98406.50
2022-09-26T20:32:49.519Z,98403.19
2022-09-26T20:35:17.400Z,98397.72
2022-09-26T20:37:45.079Z,98396.88
2022-09-26T20:40:14.482Z,98385.22
2022-09-26T20:42:44.552Z,98391.53
2022-09-26T20:45:15.633Z,98390.84
2022-09-26T20:47:43.547Z,98388.03
2022-09-26T20:50:15.520Z,98319.44
2022-09-26T20:52:43.599Z,98373.22
2022-09-26T20:55:15.203Z,98370.41
2022-09-26T20:57:43.014Z,98363.41
2022-09-26T21:00:15.288Z,98365.09
2022-09-26T21:02:43.045Z,98358.25
2022-09-26T21:05:17.558Z,98353.75
2022-09-26T21:07:45.253Z,98352.22
2022-09-26T21:10:23.527Z,98344.09
2022-09-26T21:12:51.434Z,98348.72
2022-09-26T21:15:19.110Z,98343.38
2022-09-26T21:17:47.009Z,98272.03
2022-09-26T21:20:16.868Z,98337.09
2022-09-26T21:22:44.593Z,98326.63
2022-09-26T21:25:16.620Z,98281.34
2022-09-26T21:27:44.462Z,98324.25
2022-09-26T21:30:15.681Z,98318.91
2022-09-26T21:32:45.104Z,98322.53
2022-09-26T21:35:13.967Z,98334.03
2022-09-26T21:37:43.356Z,98269.75
2022-09-26T21:40:11.163Z,98323.53
2022-09-26T21:42:39.125Z,98319.22
2022-09-26T21:45:07.925Z,98254.38
2022-09-26T21:47:36.583Z,98313.59
2022-09-26T21:50:05.565Z,98311.91
2022-09-26T21:52:35.114Z,98306.59
2022-09-26T21:55:04.182Z,98308.72
2022-09-26T21:57:33.621Z,98294.56
2022-09-26T22:00:03.854Z,98224.19
2022-09-26T22:02:31.605Z,98297.22
2022-09-26T22:04:59.764Z,98297.22
2022-09-26T22:07:27.460Z,98283.94
2022-09-26T22:09:55.116Z,98288.56
2022-09-26T22:12:24.125Z,98285.22
2022-09-26T22:14:51.795Z,98274.59
2022-09-26T22:17:19.574Z,98270.06
2022-09-26T22:19:47.372Z,98262.94
2022-09-26T22:22:15.444Z,98111.34
2022-09-26T22:24:43.087Z,98137.28
2022-09-26T22:27:10.761Z,98270.94
2022-09-26T22:29:39.767Z,98255.97
2022-09-26T22:32:07.506Z,98257.63
2022-09-26T22:34:35.183Z,98255.25
2022-09-26T22:37:02.852Z,98247.28
2022-09-26T22:39:30.509Z,98250.66
2022-09-26T22:41:58.630Z,98245.47
2022-09-26T22:44:26.301Z,98231.31
2022-09-26T22:46:55.391Z,98177.34
2022-09-26T22:49:23.337Z,98232.31
2022-09-26T22:51:51.072Z,98227.97
2022-09-26T22:54:19.567Z,98227.16
2022-09-26T22:56:47.300Z,98213.72
2022-09-26T22:59:15.098Z,98207.56
2022-09-26T23:01:43.478Z,98194.56
2022-09-26T23:04:12.780Z,98212.16
2022-09-26T23:06:40.562Z,98199.31
2022-09-26T23:09:08.355Z,98207.00
2022-09-26T23:11:36.131Z,98201.66
2022-09-26T23:14:03.849Z,98199.72
2022-09-26T23:16:31.611Z,98202.22
2022-09-26T23:18:59.362Z,98198.03
2022-09-26T23:21:28.547Z,98181.25
2022-09-26T23:23:57.237Z,98187.56
2022-09-26T23:26:25.980Z,98185.84
2022-09-26T23:28:54.780Z,98139.16
2022-09-26T23:31:22.961Z,98178.03
2022-09-26T23:33:50.777Z,98177.38
2022-09-26T23:36:19.592Z,98111.19
2022-09-26T23:38:48.742Z,98177.06
2022-09-26T23:41:16.424Z,98175.38
2022-09-26T23:43:46.348Z,98155.28
2022-09-26T23:46:14.212Z,98162.06
2022-09-26T23:48:42.047Z,98126.56
2022-09-26T23:51:09.800Z,98157.75
2022-09-26T23:53:37.586Z,98158.59
2022-09-26T23:56:07.824Z,98155.09
2022-09-26T23:58:35.648Z,98126.94
